Delrose, Texas
Current Conditions -  °F | °C
As of 6:55 AM on Wednesday 26 Nov 2014 (Local Time) from KOSA Reporting Station
Clear Clear  
Wind Chill: 38°   Ceiling: Unl
Heat Index: 42°   Visibility: 10mi
Dew Point: 31°   Wind: 6mph
Humidity: 66%   Direction: 220°SW
Pressure: 30.07"   Gusts: NA
Location:  32.7353°N, 94.9492°W
Report Text: KOSA 261255Z AUTO 22005KT 10SM CLR 05/M01 A3007 RMK AO1 T00531006
Loading
Personal Weather Stations






























Interactive Weather Map New forecast layout! Learn more

10-Day Weather Forecast

Advertisements
Track Severe Weather on mobile